sensor_id;sensor_type;location;lat;lon;timestamp;pressure;altitude;pressure_sealevel;temperature;humidity
69223;BME280;56514;51.816;-0.026;2023-01-26T00:01:46;102330.66;;;5.29;80.97
69223;BME280;56514;51.816;-0.026;2023-01-26T00:04:50;102331.78;;;5.18;81.53
69223;BME280;56514;51.816;-0.026;2023-01-26T00:07:55;102330.22;;;5.09;81.61
69223;BME280;56514;51.816;-0.026;2023-01-26T00:11:04;102332.16;;;4.98;81.90
69223;BME280;56514;51.816;-0.026;2023-01-26T00:14:10;102334.06;;;4.92;81.77
69223;BME280;56514;51.816;-0.026;2023-01-26T00:17:19;102332.41;;;4.86;81.86
69223;BME280;56514;51.816;-0.026;2023-01-26T00:20:34;102328.19;;;4.79;81.72
69223;BME280;56514;51.816;-0.026;2023-01-26T00:23:43;102332.69;;;4.71;82.02
69223;BME280;56514;51.816;-0.026;2023-01-26T00:26:53;102329.28;;;4.66;81.88
69223;BME280;56514;51.816;-0.026;2023-01-26T00:30:02;102321.66;;;4.56;82.04
69223;BME280;56514;51.816;-0.026;2023-01-26T00:33:12;102321.72;;;4.51;82.17
69223;BME280;56514;51.816;-0.026;2023-01-26T00:36:22;102329.63;;;4.48;82.31
69223;BME280;56514;51.816;-0.026;2023-01-26T00:39:31;102325.38;;;4.43;82.35
69223;BME280;56514;51.816;-0.026;2023-01-26T00:42:40;102323.75;;;4.37;82.75
69223;BME280;56514;51.816;-0.026;2023-01-26T00:45:26;102327.97;;;4.44;82.62
69223;BME280;56514;51.816;-0.026;2023-01-26T00:48:12;102316.72;;;4.39;82.23
69223;BME280;56514;51.816;-0.026;2023-01-26T00:50:57;102317.63;;;4.38;82.66
69223;BME280;56514;51.816;-0.026;2023-01-26T00:53:41;102327.16;;;4.41;82.07
69223;BME280;56514;51.816;-0.026;2023-01-26T00:56:26;102323.81;;;4.31;82.34
69223;BME280;56514;51.816;-0.026;2023-01-26T00:59:12;102330.75;;;4.34;81.78
69223;BME280;56514;51.816;-0.026;2023-01-26T01:02:01;102324.78;;;4.27;82.57
69223;BME280;56514;51.816;-0.026;2023-01-26T01:04:46;102327.34;;;4.29;82.61
69223;BME280;56514;51.816;-0.026;2023-01-26T01:07:31;102324.81;;;4.24;82.86
69223;BME280;56514;51.816;-0.026;2023-01-26T01:10:17;102319.53;;;4.27;82.06
69223;BME280;56514;51.816;-0.026;2023-01-26T01:13:02;102325.75;;;4.22;82.65
69223;BME280;56514;51.816;-0.026;2023-01-26T01:15:47;102324.72;;;4.30;82.26
69223;BME280;56514;51.816;-0.026;2023-01-26T01:18:31;102319.56;;;4.26;82.04
69223;BME280;56514;51.816;-0.026;2023-01-26T01:21:17;102326.66;;;4.18;82.63
69223;BME280;56514;51.816;-0.026;2023-01-26T01:24:03;102323.94;;;4.24;82.50
69223;BME280;56514;51.816;-0.026;2023-01-26T01:26:48;102323.94;;;4.24;82.12
69223;BME280;56514;51.816;-0.026;2023-01-26T01:29:32;102325.78;;;4.20;82.04
69223;BME280;56514;51.816;-0.026;2023-01-26T01:32:18;102334.53;;;4.15;82.65
69223;BME280;56514;51.816;-0.026;2023-01-26T01:35:03;102332.88;;;4.11;82.58
69223;BME280;56514;51.816;-0.026;2023-01-26T01:37:48;102332.91;;;4.09;82.48
69223;BME280;56514;51.816;-0.026;2023-01-26T01:40:33;102341.56;;;4.13;82.65
69223;BME280;56514;51.816;-0.026;2023-01-26T01:43:18;102338.13;;;4.09;82.39
69223;BME280;56514;51.816;-0.026;2023-01-26T01:46:15;102339.03;;;4.08;82.69
69223;BME280;56514;51.816;-0.026;2023-01-26T01:49:14;102344.09;;;4.17;82.20
69223;BME280;56514;51.816;-0.026;2023-01-26T01:52:07;102338.84;;;4.20;81.88
69223;BME280;56514;51.816;-0.026;2023-01-26T01:55:09;102346.66;;;4.20;82.00
69223;BME280;56514;51.816;-0.026;2023-01-26T01:57:58;102345.69;;;4.26;82.25
69223;BME280;56514;51.816;-0.026;2023-01-26T02:00:44;102348.19;;;4.32;81.93
69223;BME280;56514;51.816;-0.026;2023-01-26T02:03:30;102339.47;;;4.33;81.90
69223;BME280;56514;51.816;-0.026;2023-01-26T02:09:22;102343.97;;;4.26;81.40
69223;BME280;56514;51.816;-0.026;2023-01-26T02:12:30;102336.31;;;4.14;81.34
69223;BME280;56514;51.816;-0.026;2023-01-26T02:15:16;102332.94;;;4.08;81.31
69223;BME280;56514;51.816;-0.026;2023-01-26T02:18:02;102340.84;;;4.03;81.30
69223;BME280;56514;51.816;-0.026;2023-01-26T02:21:05;102338.28;;;4.00;81.86
69223;BME280;56514;51.816;-0.026;2023-01-26T02:27:00;102338.38;;;3.94;81.48
69223;BME280;56514;51.816;-0.026;2023-01-26T02:29:45;102349.69;;;3.92;81.64
69223;BME280;56514;51.816;-0.026;2023-01-26T02:32:30;102343.69;;;3.88;81.36
69223;BME280;56514;51.816;-0.026;2023-01-26T02:35:15;102344.53;;;3.87;81.85
69223;BME280;56514;51.816;-0.026;2023-01-26T02:38:00;102341.19;;;3.81;81.60
69223;BME280;56514;51.816;-0.026;2023-01-26T02:40:53;102338.59;;;3.81;81.60
69223;BME280;56514;51.816;-0.026;2023-01-26T02:43:39;102333.41;;;3.78;81.54
69223;BME280;56514;51.816;-0.026;2023-01-26T02:46:24;102340.31;;;3.80;81.55
69223;BME280;56514;51.816;-0.026;2023-01-26T02:49:09;102339.50;;;3.75;81.54
69223;BME280;56514;51.816;-0.026;2023-01-26T02:52:21;102349.09;;;3.76;81.11
69223;BME280;56514;51.816;-0.026;2023-01-26T02:55:07;102349.94;;;3.77;81.24
69223;BME280;56514;51.816;-0.026;2023-01-26T02:58:09;102350.72;;;3.82;81.46
69223;BME280;56514;51.816;-0.026;2023-01-26T03:00:53;102342.94;;;3.80;81.45
69223;BME280;56514;51.816;-0.026;2023-01-26T03:03:38;102341.22;;;3.78;81.43
69223;BME280;56514;51.816;-0.026;2023-01-26T03:06:26;102348.19;;;3.77;81.20
69223;BME280;56514;51.816;-0.026;2023-01-26T03:09:11;102351.69;;;3.76;81.20
69223;BME280;56514;51.816;-0.026;2023-01-26T03:11:56;102341.19;;;3.81;81.48
69223;BME280;56514;51.816;-0.026;2023-01-26T03:14:40;102340.28;;;3.83;81.04
69223;BME280;56514;51.816;-0.026;2023-01-26T03:17:26;102341.06;;;3.88;81.10
69223;BME280;56514;51.816;-0.026;2023-01-26T03:20:11;102354.91;;;3.93;80.79
69223;BME280;56514;51.816;-0.026;2023-01-26T03:23:15;102357.50;;;3.93;80.92
69223;BME280;56514;51.816;-0.026;2023-01-26T03:26:19;102347.84;;;4.00;81.21
69223;BME280;56514;51.816;-0.026;2023-01-26T03:29:23;102356.38;;;4.12;80.97
69223;BME280;56514;51.816;-0.026;2023-01-26T03:32:10;102354.50;;;4.20;80.70
69223;BME280;56514;51.816;-0.026;2023-01-26T03:34:55;102355.13;;;4.33;80.67
69223;BME280;56514;51.816;-0.026;2023-01-26T03:37:41;102353.25;;;4.42;80.11
69223;BME280;56514;51.816;-0.026;2023-01-26T03:40:30;102344.38;;;4.52;80.56
69223;BME280;56514;51.816;-0.026;2023-01-26T03:43:41;102351.25;;;4.58;79.99
69223;BME280;56514;51.816;-0.026;2023-01-26T03:46:45;102349.38;;;4.66;79.65
69223;BME280;56514;51.816;-0.026;2023-01-26T03:49:48;102364.00;;;4.74;79.87
69223;BME280;56514;51.816;-0.026;2023-01-26T03:52:52;102366.56;;;4.77;79.20
69223;BME280;56514;51.816;-0.026;2023-01-26T03:55:55;102363.84;;;4.83;79.58
69223;BME280;56514;51.816;-0.026;2023-01-26T03:59:01;102369.88;;;4.87;79.28
69223;BME280;56514;51.816;-0.026;2023-01-26T04:01:52;102370.69;;;4.90;79.03
69223;BME280;56514;51.816;-0.026;2023-01-26T04:04:55;102359.44;;;4.85;78.81
69223;BME280;56514;51.816;-0.026;2023-01-26T04:08:03;102353.16;;;4.95;79.09
69223;BME280;56514;51.816;-0.026;2023-01-26T04:11:07;102365.31;;;4.98;78.67
69223;BME280;56514;51.816;-0.026;2023-01-26T04:13:52;102365.34;;;4.96;78.80
69223;BME280;56514;51.816;-0.026;2023-01-26T04:16:56;102367.00;;;5.00;78.89
69223;BME280;56514;51.816;-0.026;2023-01-26T04:20:00;102367.84;;;5.02;78.78
69223;BME280;56514;51.816;-0.026;2023-01-26T04:23:04;102366.00;;;5.06;78.37
69223;BME280;56514;51.816;-0.026;2023-01-26T04:25:49;102373.84;;;5.07;78.68
69223;BME280;56514;51.816;-0.026;2023-01-26T04:28:34;102373.78;;;5.10;78.56
69223;BME280;56514;51.816;-0.026;2023-01-26T04:31:19;102386.75;;;5.16;78.53
69223;BME280;56514;51.816;-0.026;2023-01-26T04:34:05;102381.47;;;5.19;78.88
69223;BME280;56514;51.816;-0.026;2023-01-26T04:36:50;102390.13;;;5.21;78.34
69223;BME280;56514;51.816;-0.026;2023-01-26T04:39:35;102387.59;;;5.17;78.55
69223;BME280;56514;51.816;-0.026;2023-01-26T04:42:20;102385.75;;;5.23;78.59
69223;BME280;56514;51.816;-0.026;2023-01-26T04:45:09;102380.63;;;5.17;78.40
69223;BME280;56514;51.816;-0.026;2023-01-26T04:47:55;102378.84;;;5.19;78.30
69223;BME280;56514;51.816;-0.026;2023-01-26T04:50:39;102373.69;;;5.16;78.46
69223;BME280;56514;51.816;-0.026;2023-01-26T04:53:24;102384.97;;;5.18;78.49
69223;BME280;56514;51.816;-0.026;2023-01-26T04:56:36;102379.66;;;5.21;78.40
69223;BME280;56514;51.816;-0.026;2023-01-26T04:59:21;102369.31;;;5.15;78.16
69223;BME280;56514;51.816;-0.026;2023-01-26T05:02:06;102366.72;;;5.15;78.04
69223;BME280;56514;51.816;-0.026;2023-01-26T05:04:51;102375.50;;;5.11;78.45
69223;BME280;56514;51.816;-0.026;2023-01-26T05:07:35;102375.50;;;5.13;78.25
69223;BME280;56514;51.816;-0.026;2023-01-26T05:10:20;102380.69;;;5.14;78.48
69223;BME280;56514;51.816;-0.026;2023-01-26T05:13:05;102376.31;;;5.16;78.09
69223;BME280;56514;51.816;-0.026;2023-01-26T05:15:50;102382.53;;;5.09;78.63
69223;BME280;56514;51.816;-0.026;2023-01-26T05:18:35;102384.25;;;5.09;78.59
69223;BME280;56514;51.816;-0.026;2023-01-26T05:21:20;102386.94;;;5.06;78.80
69223;BME280;56514;51.816;-0.026;2023-01-26T05:24:09;102380.94;;;5.02;78.40
69223;BME280;56514;51.816;-0.026;2023-01-26T05:26:54;102378.41;;;4.98;78.33
69223;BME280;56514;51.816;-0.026;2023-01-26T05:29:59;102377.41;;;5.03;78.66
69223;BME280;56514;51.816;-0.026;2023-01-26T05:32:45;102377.28;;;5.09;78.75
69223;BME280;56514;51.816;-0.026;2023-01-26T05:35:30;102373.84;;;5.07;78.45
69223;BME280;56514;51.816;-0.026;2023-01-26T05:38:16;102370.34;;;5.08;78.18
69223;BME280;56514;51.816;-0.026;2023-01-26T05:41:02;102370.28;;;5.11;78.05
69223;BME280;56514;51.816;-0.026;2023-01-26T05:43:47;102372.78;;;5.17;78.11
69223;BME280;56514;51.816;-0.026;2023-01-26T05:46:31;102377.19;;;5.14;78.12
69223;BME280;56514;51.816;-0.026;2023-01-26T05:49:16;102379.88;;;5.11;77.86
69223;BME280;56514;51.816;-0.026;2023-01-26T05:52:02;102377.13;;;5.17;77.56
69223;BME280;56514;51.816;-0.026;2023-01-26T05:54:47;102374.63;;;5.12;77.52
69223;BME280;56514;51.816;-0.026;2023-01-26T05:57:32;102382.50;;;5.11;77.49
69223;BME280;56514;51.816;-0.026;2023-01-26T06:00:17;102381.56;;;5.15;77.31
69223;BME280;56514;51.816;-0.026;2023-01-26T06:03:02;102392.16;;;5.06;77.46
69223;BME280;56514;51.816;-0.026;2023-01-26T06:05:54;102388.84;;;4.99;77.21
69223;BME280;56514;51.816;-0.026;2023-01-26T06:08:39;102391.34;;;5.05;77.44
69223;BME280;56514;51.816;-0.026;2023-01-26T06:11:24;102383.44;;;5.07;77.26
69223;BME280;56514;51.816;-0.026;2023-01-26T06:14:09;102386.94;;;5.06;76.94
69223;BME280;56514;51.816;-0.026;2023-01-26T06:16:53;102404.56;;;4.96;77.45
69223;BME280;56514;51.816;-0.026;2023-01-26T06:19:40;102402.84;;;4.95;78.23
69223;BME280;56514;51.816;-0.026;2023-01-26T06:22:25;102400.94;;;5.03;77.86
69223;BME280;56514;51.816;-0.026;2023-01-26T06:25:11;102396.66;;;5.01;78.01
69223;BME280;56514;51.816;-0.026;2023-01-26T06:27:56;102414.91;;;5.04;78.01
69223;BME280;56514;51.816;-0.026;2023-01-26T06:30:42;102422.78;;;5.02;77.95
69223;BME280;56514;51.816;-0.026;2023-01-26T06:33:26;102414.19;;;4.94;77.98
69223;BME280;56514;51.816;-0.026;2023-01-26T06:36:14;102419.59;;;4.85;78.33
69223;BME280;56514;51.816;-0.026;2023-01-26T06:38:59;102421.28;;;4.88;78.23
69223;BME280;56514;51.816;-0.026;2023-01-26T06:41:44;102426.38;;;4.95;78.01
69223;BME280;56514;51.816;-0.026;2023-01-26T06:44:29;102427.94;;;5.05;78.51
69223;BME280;56514;51.816;-0.026;2023-01-26T06:47:14;102430.41;;;5.13;78.58
69223;BME280;56514;51.816;-0.026;2023-01-26T06:49:59;102432.91;;;5.19;78.04
69223;BME280;56514;51.816;-0.026;2023-01-26T06:52:46;102440.78;;;5.19;78.16
69223;BME280;56514;51.816;-0.026;2023-01-26T06:55:38;102433.66;;;5.27;78.15
69223;BME280;56514;51.816;-0.026;2023-01-26T06:58:23;102444.13;;;5.27;77.99
69223;BME280;56514;51.816;-0.026;2023-01-26T07:01:19;102453.75;;;5.25;78.22
69223;BME280;56514;51.816;-0.026;2023-01-26T07:04:04;102446.56;;;5.36;77.83
69223;BME280;56514;51.816;-0.026;2023-01-26T07:06:49;102458.75;;;5.37;77.75
69223;BME280;56514;51.816;-0.026;2023-01-26T07:09:34;102466.59;;;5.37;77.88
69223;BME280;56514;51.816;-0.026;2023-01-26T07:12:19;102464.66;;;5.47;78.00
69223;BME280;56514;51.816;-0.026;2023-01-26T07:15:04;102463.75;;;5.47;77.65
69223;BME280;56514;51.816;-0.026;2023-01-26T07:17:49;102462.84;;;5.48;77.70
69223;BME280;56514;51.816;-0.026;2023-01-26T07:20:35;102460.31;;;5.45;77.62
69223;BME280;56514;51.816;-0.026;2023-01-26T07:23:20;102452.44;;;5.45;77.98
69223;BME280;56514;51.816;-0.026;2023-01-26T07:26:06;102444.66;;;5.42;77.93
69223;BME280;56514;51.816;-0.026;2023-01-26T07:28:51;102437.66;;;5.44;78.11
69223;BME280;56514;51.816;-0.026;2023-01-26T07:31:36;102447.22;;;5.45;77.64
69223;BME280;56514;51.816;-0.026;2023-01-26T07:34:22;102464.78;;;5.40;77.89
69223;BME280;56514;51.816;-0.026;2023-01-26T07:37:07;102462.41;;;5.28;77.87
69223;BME280;56514;51.816;-0.026;2023-01-26T07:39:52;102467.75;;;5.22;78.48
69223;BME280;56514;51.816;-0.026;2023-01-26T07:42:37;102467.69;;;5.25;78.48
69223;BME280;56514;51.816;-0.026;2023-01-26T07:45:22;102476.34;;;5.27;78.55
69223;BME280;56514;51.816;-0.026;2023-01-26T07:48:06;102483.41;;;5.24;78.07
69223;BME280;56514;51.816;-0.026;2023-01-26T07:50:51;102481.66;;;5.23;77.83
69223;BME280;56514;51.816;-0.026;2023-01-26T07:53:37;102474.84;;;5.16;78.13
69223;BME280;56514;51.816;-0.026;2023-01-26T07:56:27;102477.44;;;5.16;78.29
69223;BME280;56514;51.816;-0.026;2023-01-26T07:59:11;102479.97;;;5.22;77.34
69223;BME280;56514;51.816;-0.026;2023-01-26T08:01:56;102491.28;;;5.22;78.02
69223;BME280;56514;51.816;-0.026;2023-01-26T08:04:41;102485.97;;;5.27;77.90
69223;BME280;56514;51.816;-0.026;2023-01-26T08:07:26;102481.59;;;5.27;77.47
69223;BME280;56514;51.816;-0.026;2023-01-26T08:10:10;102472.81;;;5.31;77.06
69223;BME280;56514;51.816;-0.026;2023-01-26T08:13:00;102486.81;;;5.27;77.39
69223;BME280;56514;51.816;-0.026;2023-01-26T08:15:45;102482.34;;;5.34;77.47
69223;BME280;56514;51.816;-0.026;2023-01-26T08:18:30;102476.19;;;5.36;77.70
69223;BME280;56514;51.816;-0.026;2023-01-26T08:21:17;102466.38;;;5.47;77.15
69223;BME280;56514;51.816;-0.026;2023-01-26T08:24:02;102467.31;;;5.45;77.03
69223;BME280;56514;51.816;-0.026;2023-01-26T08:26:47;102474.25;;;5.46;77.07
69223;BME280;56514;51.816;-0.026;2023-01-26T08:29:32;102472.38;;;5.54;77.31
69223;BME280;56514;51.816;-0.026;2023-01-26T08:32:17;102459.16;;;5.60;77.24
69223;BME280;56514;51.816;-0.026;2023-01-26T08:35:02;102464.41;;;5.59;77.30
69223;BME280;56514;51.816;-0.026;2023-01-26T08:37:47;102468.63;;;5.66;77.15
69223;BME280;56514;51.816;-0.026;2023-01-26T08:40:32;102476.56;;;5.61;77.25
69223;BME280;56514;51.816;-0.026;2023-01-26T08:43:16;102469.50;;;5.66;77.89
69223;BME280;56514;51.816;-0.026;2023-01-26T08:46:02;102460.56;;;5.76;77.53
69223;BME280;56514;51.816;-0.026;2023-01-26T08:48:47;102469.16;;;5.84;77.68
69223;BME280;56514;51.816;-0.026;2023-01-26T08:51:32;102474.25;;;5.90;77.44
69223;BME280;56514;51.816;-0.026;2023-01-26T08:54:18;102472.47;;;5.94;77.41
69223;BME280;56514;51.816;-0.026;2023-01-26T08:57:03;102475.94;;;5.94;78.10
69223;BME280;56514;51.816;-0.026;2023-01-26T08:59:49;102482.56;;;6.10;78.33
69223;BME280;56514;51.816;-0.026;2023-01-26T09:02:34;102487.22;;;6.36;77.13
69223;BME280;56514;51.816;-0.026;2023-01-26T09:05:19;102482.78;;;6.39;77.13
69223;BME280;56514;51.816;-0.026;2023-01-26T09:08:06;102488.88;;;6.41;77.16
69223;BME280;56514;51.816;-0.026;2023-01-26T09:10:51;102490.75;;;6.35;76.89
69223;BME280;56514;51.816;-0.026;2023-01-26T09:13:36;102500.34;;;6.36;77.23
69223;BME280;56514;51.816;-0.026;2023-01-26T09:16:23;102493.09;;;6.47;76.90
69223;BME280;56514;51.816;-0.026;2023-01-26T09:19:08;102492.22;;;6.46;77.06
69223;BME280;56514;51.816;-0.026;2023-01-26T09:21:53;102481.81;;;6.43;77.25
69223;BME280;56514;51.816;-0.026;2023-01-26T09:24:38;102492.03;;;6.54;77.13
69223;BME280;56514;51.816;-0.026;2023-01-26T09:27:23;102491.22;;;6.53;77.69
69223;BME280;56514;51.816;-0.026;2023-01-26T09:30:09;102501.44;;;6.64;77.88
69223;BME280;56514;51.816;-0.026;2023-01-26T09:32:58;102498.78;;;6.65;77.72
69223;BME280;56514;51.816;-0.026;2023-01-26T09:35:45;102498.66;;;6.70;77.63
69223;BME280;56514;51.816;-0.026;2023-01-26T09:38:31;102512.59;;;6.73;77.82
69223;BME280;56514;51.816;-0.026;2023-01-26T09:51:27;102513.88;;;6.91;77.44
69223;BME280;56514;51.816;-0.026;2023-01-26T09:57:23;102528.03;;;6.85;78.03
69223;BME280;56514;51.816;-0.026;2023-01-26T10:00:18;102526.47;;;6.77;78.55
69223;BME280;56514;51.816;-0.026;2023-01-26T10:06:30;102524.41;;;6.89;78.76
69223;BME280;56514;51.816;-0.026;2023-01-26T10:09:25;102527.56;;;7.03;77.88
69223;BME280;56514;51.816;-0.026;2023-01-26T10:12:27;102535.22;;;7.12;78.52
69223;BME280;56514;51.816;-0.026;2023-01-26T10:15:37;102528.59;;;7.32;78.56
69223;BME280;56514;51.816;-0.026;2023-01-26T10:18:28;102541.47;;;7.41;77.75
69223;BME280;56514;51.816;-0.026;2023-01-26T10:21:19;102544.25;;;7.35;77.25
69223;BME280;56514;51.816;-0.026;2023-01-26T10:24:10;102545.88;;;7.40;77.45
69223;BME280;56514;51.816;-0.026;2023-01-26T10:26:57;102547.59;;;7.41;77.54
69223;BME280;56514;51.816;-0.026;2023-01-26T10:29:41;102534.00;;;7.58;77.56
69223;BME280;56514;51.816;-0.026;2023-01-26T10:32:26;102536.47;;;7.64;77.61
69223;BME280;56514;51.816;-0.026;2023-01-26T10:35:16;102545.50;;;7.86;77.10
69223;BME280;56514;51.816;-0.026;2023-01-26T10:38:02;102543.44;;;8.27;76.20
69223;BME280;56514;51.816;-0.026;2023-01-26T10:40:47;102537.00;;;8.37;75.18
69223;BME280;56514;51.816;-0.026;2023-01-26T10:43:36;102539.72;;;8.34;75.07
69223;BME280;56514;51.816;-0.026;2023-01-26T10:46:32;102535.38;;;8.33;74.85
69223;BME280;56514;51.816;-0.026;2023-01-26T10:49:18;102538.00;;;8.33;74.08
69223;BME280;56514;51.816;-0.026;2023-01-26T10:52:21;102537.19;;;8.31;74.48
69223;BME280;56514;51.816;-0.026;2023-01-26T10:55:11;102546.59;;;8.38;75.00
69223;BME280;56514;51.816;-0.026;2023-01-26T10:57:56;102544.53;;;8.49;74.33
69223;BME280;56514;51.816;-0.026;2023-01-26T11:00:42;102540.09;;;8.51;74.11
69223;BME280;56514;51.816;-0.026;2023-01-26T11:03:27;102539.94;;;8.56;74.20
69223;BME280;56514;51.816;-0.026;2023-01-26T11:06:16;102541.69;;;8.55;74.26
69223;BME280;56514;51.816;-0.026;2023-01-26T11:12:01;102545.16;;;8.57;73.80
69223;BME280;56514;51.816;-0.026;2023-01-26T11:15:20;102544.38;;;8.54;73.02
69223;BME280;56514;51.816;-0.026;2023-01-26T11:18:31;102535.56;;;8.55;73.78
69223;BME280;56514;51.816;-0.026;2023-01-26T11:21:23;102540.44;;;8.67;73.84
69223;BME280;56514;51.816;-0.026;2023-01-26T11:24:17;102540.84;;;8.82;74.21
69223;BME280;56514;51.816;-0.026;2023-01-26T11:30:34;102540.84;;;9.35;72.46
69223;BME280;56514;51.816;-0.026;2023-01-26T11:33:51;102532.47;;;9.48;72.05
69223;BME280;56514;51.816;-0.026;2023-01-26T11:49:42;102533.09;;;9.30;71.14
69223;BME280;56514;51.816;-0.026;2023-01-26T11:55:54;102537.56;;;9.53;70.70
69223;BME280;56514;51.816;-0.026;2023-01-26T12:01:39;102533.44;;;9.46;70.55
69223;BME280;56514;51.816;-0.026;2023-01-26T12:04:25;102534.22;;;9.49;70.92
69223;BME280;56514;51.816;-0.026;2023-01-26T12:07:16;102519.25;;;9.50;70.92
69223;BME280;56514;51.816;-0.026;2023-01-26T12:10:04;102521.22;;;9.43;70.87
69223;BME280;56514;51.816;-0.026;2023-01-26T12:12:57;102509.13;;;9.38;70.98
69223;BME280;56514;51.816;-0.026;2023-01-26T12:15:52;102510.06;;;9.61;70.72
69223;BME280;56514;51.816;-0.026;2023-01-26T12:21:48;102509.75;;;9.93;69.76
69223;BME280;56514;51.816;-0.026;2023-01-26T12:24:37;102510.31;;;10.01;69.26
69223;BME280;56514;51.816;-0.026;2023-01-26T12:27:41;102518.84;;;9.85;69.02
69223;BME280;56514;51.816;-0.026;2023-01-26T12:33:32;102512.97;;;9.29;71.21
69223;BME280;56514;51.816;-0.026;2023-01-26T12:36:45;102507.66;;;9.05;71.78
69223;BME280;56514;51.816;-0.026;2023-01-26T12:42:40;102514.56;;;9.07;73.12
69223;BME280;56514;51.816;-0.026;2023-01-26T12:45:31;102508.25;;;9.13;73.01
69223;BME280;56514;51.816;-0.026;2023-01-26T12:49:01;102503.09;;;9.10;72.54
69223;BME280;56514;51.816;-0.026;2023-01-26T12:51:58;102501.56;;;9.03;72.87
69223;BME280;56514;51.816;-0.026;2023-01-26T12:54:58;102493.41;;;9.10;72.37
69223;BME280;56514;51.816;-0.026;2023-01-26T12:57:51;102500.94;;;9.21;72.35
69223;BME280;56514;51.816;-0.026;2023-01-26T13:00:38;102497.41;;;9.22;71.58
69223;BME280;56514;51.816;-0.026;2023-01-26T13:03:28;102491.88;;;9.29;71.88
69223;BME280;56514;51.816;-0.026;2023-01-26T13:06:17;102494.19;;;9.38;70.67
69223;BME280;56514;51.816;-0.026;2023-01-26T13:09:19;102496.72;;;9.66;71.23
69223;BME280;56514;51.816;-0.026;2023-01-26T13:15:30;102502.03;;;9.89;70.08
69223;BME280;56514;51.816;-0.026;2023-01-26T13:18:16;102494.66;;;9.74;69.91
69223;BME280;56514;51.816;-0.026;2023-01-26T13:21:01;102501.81;;;9.70;69.46
69223;BME280;56514;51.816;-0.026;2023-01-26T13:23:46;102504.47;;;9.70;70.08
69223;BME280;56514;51.816;-0.026;2023-01-26T13:35:00;102480.09;;;9.64;70.14
69223;BME280;56514;51.816;-0.026;2023-01-26T13:37:56;102484.50;;;9.63;70.42
69223;BME280;56514;51.816;-0.026;2023-01-26T13:40:46;102478.78;;;9.75;70.45
69223;BME280;56514;51.816;-0.026;2023-01-26T13:43:42;102482.06;;;9.82;70.34
69223;BME280;56514;51.816;-0.026;2023-01-26T13:46:35;102484.44;;;9.65;70.03
69223;BME280;56514;51.816;-0.026;2023-01-26T13:49:37;102489.16;;;9.57;70.86
69223;BME280;56514;51.816;-0.026;2023-01-26T13:52:24;102485.50;;;9.84;70.84
69223;BME280;56514;51.816;-0.026;2023-01-26T13:55:29;102486.94;;;9.92;70.18
69223;BME280;56514;51.816;-0.026;2023-01-26T13:58:17;102487.91;;;9.90;69.54
69223;BME280;56514;51.816;-0.026;2023-01-26T14:01:05;102481.34;;;9.77;69.12
69223;BME280;56514;51.816;-0.026;2023-01-26T14:04:01;102490.25;;;9.50;69.94
69223;BME280;56514;51.816;-0.026;2023-01-26T14:09:59;102486.44;;;10.94;65.51
69223;BME280;56514;51.816;-0.026;2023-01-26T14:12:48;102487.56;;;11.08;64.65
69223;BME280;56514;51.816;-0.026;2023-01-26T14:15:35;102491.22;;;10.84;64.97
69223;BME280;56514;51.816;-0.026;2023-01-26T14:18:20;102491.91;;;10.68;64.91
69223;BME280;56514;51.816;-0.026;2023-01-26T14:21:17;102496.63;;;10.59;66.33
69223;BME280;56514;51.816;-0.026;2023-01-26T14:24:07;102492.78;;;10.46;65.48
69223;BME280;56514;51.816;-0.026;2023-01-26T14:26:53;102491.00;;;10.24;66.52
69223;BME280;56514;51.816;-0.026;2023-01-26T14:29:38;102490.53;;;10.79;67.09
69223;BME280;56514;51.816;-0.026;2023-01-26T14:32:23;102481.47;;;12.23;63.24
69223;BME280;56514;51.816;-0.026;2023-01-26T14:35:18;102491.06;;;13.33;60.54
69223;BME280;56514;51.816;-0.026;2023-01-26T14:38:15;102484.91;;;13.15;58.52
69223;BME280;56514;51.816;-0.026;2023-01-26T14:41:01;102490.56;;;12.18;59.89
69223;BME280;56514;51.816;-0.026;2023-01-26T14:43:48;102496.50;;;11.66;62.32
69223;BME280;56514;51.816;-0.026;2023-01-26T14:49:45;102503.97;;;11.36;63.27
69223;BME280;56514;51.816;-0.026;2023-01-26T14:52:34;102516.63;;;10.65;66.12
69223;BME280;56514;51.816;-0.026;2023-01-26T14:55:30;102520.69;;;10.06;68.55
69223;BME280;56514;51.816;-0.026;2023-01-26T14:58:24;102525.00;;;9.61;70.42
69223;BME280;56514;51.816;-0.026;2023-01-26T15:01:19;102525.88;;;9.37;71.01
69223;BME280;56514;51.816;-0.026;2023-01-26T15:11:02;102519.94;;;9.30;72.33
69223;BME280;56514;51.816;-0.026;2023-01-26T15:14:23;102507.03;;;11.47;65.36
69223;BME280;56514;51.816;-0.026;2023-01-26T15:17:37;102508.69;;;12.98;59.30
69223;BME280;56514;51.816;-0.026;2023-01-26T15:23:23;102496.66;;;14.57;53.69
69223;BME280;56514;51.816;-0.026;2023-01-26T15:26:28;102508.88;;;14.75;52.96
69223;BME280;56514;51.816;-0.026;2023-01-26T15:29:24;102510.63;;;14.76;52.65
69223;BME280;56514;51.816;-0.026;2023-01-26T15:32:29;102511.63;;;14.74;52.75
69223;BME280;56514;51.816;-0.026;2023-01-26T15:35:22;102525.69;;;14.29;52.38
69223;BME280;56514;51.816;-0.026;2023-01-26T15:38:10;102532.28;;;14.05;54.32
69223;BME280;56514;51.816;-0.026;2023-01-26T15:40:55;102533.22;;;14.04;53.81
69223;BME280;56514;51.816;-0.026;2023-01-26T15:43:40;102546.81;;;13.98;54.36
69223;BME280;56514;51.816;-0.026;2023-01-26T15:46:25;102542.19;;;13.86;53.92
69223;BME280;56514;51.816;-0.026;2023-01-26T15:49:11;102538.75;;;12.80;56.48
69223;BME280;56514;51.816;-0.026;2023-01-26T15:51:56;102540.22;;;11.74;59.18
69223;BME280;56514;51.816;-0.026;2023-01-26T15:54:42;102540.84;;;10.98;61.66
69223;BME280;56514;51.816;-0.026;2023-01-26T15:57:27;102540.56;;;10.39;63.68
69223;BME280;56514;51.816;-0.026;2023-01-26T16:00:19;102546.84;;;9.89;65.36
69223;BME280;56514;51.816;-0.026;2023-01-26T16:03:11;102551.56;;;9.55;66.49
69223;BME280;56514;51.816;-0.026;2023-01-26T16:05:57;102550.50;;;9.34;67.63
69223;BME280;56514;51.816;-0.026;2023-01-26T16:08:42;102536.81;;;9.25;67.98
69223;BME280;56514;51.816;-0.026;2023-01-26T16:11:30;102547.16;;;9.05;68.54
69223;BME280;56514;51.816;-0.026;2023-01-26T16:14:17;102557.16;;;8.93;69.42